Time;durP1;ratioP1;P1;durP2;ratioP2;P2;SDS_P1;SDS_P2;PMS_P1;PMS_P2;Temp;Humidity;BMP_temperature;BMP_pressure;BME280_temperature;BME280_humidity;BME280_pressure;Samples;Min_cycle;Max_cycle;Signal;HPM_P1;HPM_P2
2021/10/29 13:03:12;;;;;;;18.73;12.27;;;;;;;16.20;56.46;100770.73;5118679;57;1143296;-76
2021/10/29 13:08:22;;;;;;;21.33;13.07;;;;;;;16.37;55.96;100760.59;5078821;57;1143436;-77
2021/10/29 13:13:35;;;;;;;27.10;13.57;;;;;;;16.53;55.50;100758.59;5142460;57;1143475;-75
2021/10/29 13:34:25;;;;;;;22.83;13.63;;;;;;;17.19;55.71;100743.52;5019874;57;1143217;-76
2021/10/29 14:32:49;;;;;;;;;;;;;;;17.53;51.34;100720.84;5131019;57;1141229;-75
2021/10/29 14:43:22;;;;;;;37.10;20.20;;;;;;;16.65;52.15;100707.19;5080725;58;1141132;-76
2021/10/29 15:52:02;;;;;;;71.27;30.10;;;;;;;14.19;57.55;100668.44;5128850;56;1143356;-77
2021/10/29 15:57:06;;;;;;;60.40;30.67;;;;;;;13.99;57.90;100666.23;5128958;56;1141008;-75
2021/10/29 16:02:43;;;;;;;65.10;31.03;;;;;;;13.83;58.12;100659.27;5117737;57;1141151;-76
2021/10/29 16:18:24;;;;;;;;;;;;;;;13.49;58.58;100658.74;5085125;57;1143162;-75
2021/10/29 16:23:30;;;;;;;74.37;37.67;;;;;;;13.34;58.88;100656.94;5087312;57;976387;-75
2021/10/29 16:28:37;;;;;;;61.08;29.45;;;;;;;13.26;59.21;100657.26;5041535;58;1141165;-76
2021/10/29 16:33:43;;;;;;;66.83;33.73;;;;;;;13.15;59.37;100655.51;5041715;58;1143286;-75
2021/10/29 16:38:49;;;;;;;57.17;29.72;;;;;;;13.01;59.55;100652.68;5120344;57;1142801;-76
2021/10/29 16:43:55;;;;;;;59.30;32.30;;;;;;;12.87;59.73;100646.87;5128556;57;1143501;-76
2021/10/29 16:49:01;;;;;;;89.60;46.07;;;;;;;12.73;59.96;100644.06;5120876;57;1143261;-76
2021/10/29 16:54:07;;;;;;;104.83;56.50;;;;;;;12.64;60.28;100644.36;5082129;57;1143446;-76
2021/10/29 16:59:13;;;;;;;191.03;106.17;;;;;;;12.54;60.43;100647.41;5092386;57;1145234;-76
2021/10/29 17:04:18;;;;;;;56.83;31.80;;;;;;;12.43;60.61;100641.33;5094596;57;1147355;-76
2021/10/29 17:09:27;;;;;;;67.17;34.60;;;;;;;12.33;60.81;100640.78;5099077;57;1143183;-75
2021/10/29 17:14:32;;;;;;;42.53;25.83;;;;;;;12.23;61.00;100644.30;5085456;57;1143110;-76
2021/10/29 17:19:38;;;;;;;74.47;40.43;;;;;;;12.14;61.25;100641.93;5059901;57;1143514;-76
2021/10/29 17:24:45;;;;;;;173.70;82.27;;;;;;;12.10;61.51;100640.97;5113680;57;1143420;-77
2021/10/29 17:29:50;;;;;;;147.73;74.87;;;;;;;12.09;61.64;100641.94;5105239;57;1145295;-75
2021/10/29 17:34:57;;;;;;;162.60;82.33;;;;;;;12.03;61.63;100645.11;5149885;57;1145401;-76
2021/10/29 17:40:07;;;;;;;111.10;56.37;;;;;;;11.94;61.74;100637.41;5149928;56;1145346;-75
2021/10/29 17:45:16;;;;;;;74.00;41.57;;;;;;;11.86;61.79;100645.16;5150686;57;1145302;-75
2021/10/29 17:50:23;;;;;;;53.13;28.27;;;;;;;11.73;61.75;100647.08;5145089;57;1143244;-77
2021/10/29 17:55:36;;;;;;;44.55;25.02;;;;;;;11.68;61.88;100653.22;5111669;57;1143295;-76
2021/10/29 18:00:37;;;;;;;43.67;21.67;;;;;;;11.64;61.85;100652.12;5143568;57;1143229;-76
2021/10/29 18:05:44;;;;;;;45.20;22.37;;;;;;;11.67;62.04;100655.02;5166205;56;1143185;-73
2021/10/29 18:10:50;;;;;;;43.17;23.63;;;;;;;11.69;61.87;100660.20;5170711;56;1142977;-75
2021/10/29 18:15:56;;;;;;;38.73;22.13;;;;;;;11.67;61.72;100655.02;5188520;56;1143279;-75
2021/10/29 18:21:08;;;;;;;48.60;27.23;;;;;;;11.64;61.82;100645.98;5205025;56;1143258;-76
2021/10/29 18:26:13;;;;;;;90.43;40.00;;;;;;;11.57;61.86;100632.41;5177413;56;1143273;-74
2021/10/29 18:31:19;;;;;;;103.80;43.30;;;;;;;11.55;61.98;100625.06;5208575;56;1143291;-74
2021/10/29 18:36:24;;;;;;;85.70;37.43;;;;;;;11.50;61.92;100621.93;5189073;56;1145258;-76
2021/10/29 18:41:33;;;;;;;46.17;24.03;;;;;;;11.45;61.98;100612.20;5182735;56;1143361;-75
2021/10/29 18:46:38;;;;;;;68.10;29.13;;;;;;;11.41;62.08;100608.11;5185623;56;1143227;-75
2021/10/29 18:51:44;;;;;;;71.73;33.43;;;;;;;11.37;62.17;100615.93;5181064;56;1143594;-75
2021/10/29 18:56:50;;;;;;;66.73;29.77;;;;;;;11.36;62.18;100616.05;5169893;56;1143296;-77
2021/10/29 19:01:56;;;;;;;63.53;29.53;;;;;;;11.31;62.13;100611.59;5206858;56;1143275;-77
2021/10/29 19:07:03;;;;;;;68.57;31.70;;;;;;;11.23;62.19;100606.44;5205512;56;1143190;-75
2021/10/29 19:12:10;;;;;;;63.63;32.17;;;;;;;11.18;62.21;100595.83;5193656;56;1143080;-75
2021/10/29 19:17:19;;;;;;;61.53;28.47;;;;;;;11.17;62.17;100598.96;5198208;56;1143194;-74
2021/10/29 19:22:24;;;;;;;51.93;24.47;;;;;;;11.14;62.27;100599.70;5201638;56;1141134;-76
2021/10/29 19:27:30;;;;;;;52.50;25.03;;;;;;;11.08;62.03;100591.76;5201840;56;1141109;-73
2021/10/29 19:32:36;;;;;;;42.60;23.30;;;;;;;11.01;62.12;100585.73;5201768;56;1141116;-76
2021/10/29 19:37:52;;;;;;;39.80;20.10;;;;;;;10.95;62.25;100596.81;5192764;56;1141227;-76
2021/10/29 19:42:55;;;;;;;47.55;25.00;;;;;;;10.90;62.38;100578.63;5196506;56;1141116;-76
2021/10/29 19:48:01;;;;;;;39.23;20.73;;;;;;;10.82;62.33;100581.89;5193303;56;1141123;-74
2021/10/29 19:53:07;;;;;;;47.47;24.80;;;;;;;10.79;62.57;100579.95;5167462;56;1141118;-76
2021/10/29 19:58:14;;;;;;;49.10;22.47;;;;;;;10.73;62.64;100570.68;5146447;57;1141076;-75
2021/10/29 20:03:20;;;;;;;49.97;24.70;;;;;;;10.69;62.71;100569.73;5144306;57;1141069;-76
2021/10/29 20:08:26;;;;;;;51.43;25.97;;;;;;;10.63;62.79;100568.87;5225544;56;1141137;-77
2021/10/29 20:13:32;;;;;;;66.37;28.77;;;;;;;10.53;62.77;100564.78;5218187;56;1141580;-76
2021/10/29 20:18:43;;;;;;;54.87;25.17;;;;;;;10.44;62.99;100576.89;5178626;56;1141123;-77
2021/10/29 20:23:48;;;;;;;49.67;23.17;;;;;;;10.37;63.14;100572.20;5187463;56;1141338;-75
2021/10/29 20:28:53;;;;;;;48.13;23.73;;;;;;;10.33;63.33;100583.95;5194694;56;1141316;-76
2021/10/29 20:33:59;;;;;;;40.80;22.00;;;;;;;10.28;63.38;100584.29;5186820;56;1141168;-74
2021/10/29 20:39:09;;;;;;;45.20;22.70;;;;;;;10.26;63.65;100588.00;5147539;56;1141404;-74
2021/10/29 20:44:14;;;;;;;49.57;23.43;;;;;;;10.05;63.22;100586.47;5183753;56;1139005;-76
2021/10/29 20:49:20;;;;;;;55.47;26.53;;;;;;;9.77;63.51;100588.98;5227549;56;1143170;-77
2021/10/29 20:54:25;;;;;;;54.33;25.45;;;;;;;9.65;64.18;100586.73;5182022;56;1141072;-75
2021/10/29 20:59:31;;;;;;;95.53;35.90;;;;;;;9.49;64.51;100580.40;5185733;56;1139081;-75
2021/10/29 21:04:36;;;;;;;59.90;26.50;;;;;;;9.37;65.01;100581.29;5186045;56;1139024;-77
2021/10/29 21:09:45;;;;;;;53.00;24.17;;;;;;;9.32;65.38;100575.48;5197662;56;1139019;-78
2021/10/29 21:14:51;;;;;;;50.57;25.50;;;;;;;9.28;65.71;100576.68;5184492;56;1139361;-74
2021/10/29 21:19:56;;;;;;;43.73;21.43;;;;;;;9.28;65.77;100579.32;5175439;56;1139042;-74
2021/10/29 21:25:02;;;;;;;41.43;21.90;;;;;;;9.30;65.72;100582.70;5175768;56;1138956;-76
2021/10/29 21:30:08;;;;;;;48.13;25.53;;;;;;;9.33;65.72;100585.09;5198927;56;1139051;-75
2021/10/29 21:35:14;;;;;;;37.83;19.60;;;;;;;9.34;65.70;100578.86;5192281;56;1139010;-75
2021/10/29 21:40:20;;;;;;;36.85;18.15;;;;;;;9.42;65.63;100585.77;5199532;56;1139102;-76
2021/10/29 21:45:28;;;;;;;42.50;20.40;;;;;;;9.44;65.52;100590.47;5221451;56;1139357;-75
2021/10/29 21:50:33;;;;;;;47.90;21.97;;;;;;;9.39;65.08;100593.06;5221586;56;1139150;-77
2021/10/29 21:55:39;;;;;;;56.83;26.13;;;;;;;9.39;65.08;100593.06;5232434;56;1139030;-76
2021/10/29 22:00:51;;;;;;;40.43;20.47;;;;;;;9.25;65.37;100591.41;5242632;56;1139114;-76
2021/10/29 22:05:57;;;;;;;50.00;23.45;;;;;;;9.15;65.66;100592.55;5242200;56;1139175;-76
2021/10/29 22:11:03;;;;;;;72.33;32.33;;;;;;;9.04;65.82;100588.47;5242344;56;1138946;-73
2021/10/29 22:16:08;;;;;;;129.57;48.67;;;;;;;8.95;65.90;100583.01;5242301;56;1139268;-75
2021/10/29 22:21:15;;;;;;;102.90;41.17;;;;;;;8.87;66.03;100581.36;5242289;56;1141114;-74
2021/10/29 22:26:21;;;;;;;62.57;28.43;;;;;;;8.81;66.20;100578.70;5242314;56;1141210;-76
2021/10/29 22:31:28;;;;;;;50.07;22.83;;;;;;;8.72;66.38;100577.99;5242407;56;1139047;-77
2021/10/29 22:36:36;;;;;;;53.10;23.83;;;;;;;8.67;66.58;100582.77;5242463;56;1139038;-74
2021/10/29 22:41:42;;;;;;;47.07;21.03;;;;;;;8.64;66.76;100575.05;5242382;56;1139097;-78
2021/10/29 22:46:47;;;;;;;29.80;16.07;;;;;;;8.62;66.82;100574.31;5242443;56;1139067;-76
2021/10/29 22:51:54;;;;;;;30.00;16.33;;;;;;;8.61;66.99;100578.73;5225167;56;1139045;-75
2021/10/29 22:56:59;;;;;;;32.67;15.27;;;;;;;8.64;67.03;100588.23;5163580;56;1139029;-77
2021/10/29 23:02:06;;;;;;;30.47;16.60;;;;;;;8.66;67.02;100586.34;5159586;56;1138879;-75
2021/10/29 23:07:12;;;;;;;32.10;15.30;;;;;;;8.66;67.00;100579.28;5152120;56;1139004;-75
2021/10/29 23:12:18;;;;;;;32.33;15.57;;;;;;;8.70;67.04;100591.31;5156251;56;1139084;-75
2021/10/29 23:17:24;;;;;;;35.17;17.37;;;;;;;8.70;66.96;100588.67;5151082;56;1139089;-75
2021/10/29 23:22:29;;;;;;;33.13;16.53;;;;;;;8.69;66.97;100588.78;5151004;56;1139244;-75
2021/10/29 23:27:36;;;;;;;26.00;13.77;;;;;;;8.72;66.98;100597.77;5163508;56;1139081;-75
2021/10/29 23:32:41;;;;;;;36.38;15.95;;;;;;;8.72;66.94;100601.73;5145940;56;1139131;-75
2021/10/29 23:37:47;;;;;;;32.37;15.27;;;;;;;8.73;67.01;100606.05;5120441;57;1139049;-75
2021/10/29 23:42:53;;;;;;;25.73;13.60;;;;;;;8.69;66.94;100597.53;5025904;57;1139203;-75
2021/10/29 23:47:59;;;;;;;24.97;12.93;;;;;;;8.65;66.90;100605.27;5028001;58;1139101;-74
2021/10/29 23:53:04;;;;;;;31.57;14.77;;;;;;;8.58;66.95;100608.41;5136917;56;1139072;-75
2021/10/29 23:58:10;;;;;;;27.23;13.03;;;;;;;8.52;67.04;100611.02;5160685;56;1139067;-76
